sensor_id;sensor_type;location;lat;lon;timestamp;pressure;altitude;pressure_sealevel;temperature;humidity
74913;BME280;63878;55.624;37.304;2022-11-15T08:19:17;99272.16;;;0.36;52.82
74913;BME280;63878;55.624;37.304;2022-11-15T08:29:18;99261.44;;;0.51;51.16
74913;BME280;63878;55.624;37.304;2022-11-15T08:39:19;99251.19;;;0.50;50.67
74913;BME280;63878;55.624;37.304;2022-11-15T08:49:19;99247.19;;;0.38;51.41
74913;BME280;63878;55.624;37.304;2022-11-15T08:59:20;99237.22;;;0.59;51.19
74913;BME280;63878;55.624;37.304;2022-11-15T09:09:21;99233.13;;;0.51;51.05
74913;BME280;63878;55.624;37.304;2022-11-15T09:19:21;99216.56;;;0.62;51.20
74913;BME280;63878;55.624;37.304;2022-11-15T09:29:22;99221.91;;;0.85;51.02
74913;BME280;63878;55.624;37.304;2022-11-15T09:39:22;99206.16;;;0.65;51.75
74913;BME280;63878;55.624;37.304;2022-11-15T09:49:23;99193.84;;;0.76;51.78
74913;BME280;63878;55.624;37.304;2022-11-15T10:10:41;99170.53;;;0.80;51.24
74913;BME280;63878;55.624;37.304;2022-11-15T10:20:25;99173.78;;;0.86;50.90
74913;BME280;63878;55.624;37.304;2022-11-15T10:30:40;99168.97;;;0.73;51.63
74913;BME280;63878;55.624;37.304;2022-11-15T10:40:41;99139.63;;;0.48;51.65
74913;BME280;63878;55.624;37.304;2022-11-15T10:50:44;99125.31;;;0.69;51.26
74913;BME280;63878;55.624;37.304;2022-11-15T11:00:46;99108.91;;;0.71;52.27
74913;BME280;63878;55.624;37.304;2022-11-15T11:10:58;99117.31;;;0.78;54.52
74913;BME280;63878;55.624;37.304;2022-11-15T11:21:04;99106.00;;;0.20;61.74
74913;BME280;63878;55.624;37.304;2022-11-15T11:31:28;99114.53;;;-0.11;65.88
74913;BME280;63878;55.624;37.304;2022-11-15T11:41:54;99100.78;;;-0.10;67.85
74913;BME280;63878;55.624;37.304;2022-11-15T11:52:11;99055.00;;;-0.31;69.10
74913;BME280;63878;55.624;37.304;2022-11-15T12:02:27;99061.13;;;-0.03;68.48
74913;BME280;63878;55.624;37.304;2022-11-15T12:12:41;99062.78;;;-0.34;69.40
74913;BME280;63878;55.624;37.304;2022-11-15T12:22:58;99043.94;;;-0.33;69.97
74913;BME280;63878;55.624;37.304;2022-11-15T12:33:01;99037.00;;;-0.31;69.97
74913;BME280;63878;55.624;37.304;2022-11-15T12:43:40;99012.66;;;-0.18;69.79
74913;BME280;63878;55.624;37.304;2022-11-15T12:53:41;99002.06;;;-0.40;70.86
74913;BME280;63878;55.624;37.304;2022-11-15T13:14:47;98967.97;;;-0.15;70.16
74913;BME280;63878;55.624;37.304;2022-11-15T13:24:49;98968.22;;;-0.24;69.84
74913;BME280;63878;55.624;37.304;2022-11-15T13:34:50;98964.50;;;-0.47;70.51
74913;BME280;63878;55.624;37.304;2022-11-15T13:44:59;98949.16;;;-0.50;72.13
74913;BME280;63878;55.624;37.304;2022-11-15T14:05:23;98913.34;;;-0.25;70.22
74913;BME280;63878;55.624;37.304;2022-11-15T14:15:37;98910.75;;;-0.56;71.90
74913;BME280;63878;55.624;37.304;2022-11-15T14:25:38;98910.50;;;-0.47;71.14
74913;BME280;63878;55.624;37.304;2022-11-15T14:35:39;98892.84;;;-0.59;72.38
74913;BME280;63878;55.624;37.304;2022-11-15T14:45:40;98881.25;;;-0.43;71.31
74913;BME280;63878;55.624;37.304;2022-11-15T14:55:41;98883.94;;;-0.47;71.47
74913;BME280;63878;55.624;37.304;2022-11-15T15:05:43;98871.84;;;-0.44;71.71
74913;BME280;63878;55.624;37.304;2022-11-15T15:15:44;98859.72;;;-0.40;71.44
74913;BME280;63878;55.624;37.304;2022-11-15T15:25:46;98856.03;;;-0.30;70.59
74913;BME280;63878;55.624;37.304;2022-11-15T15:35:47;98835.50;;;-0.63;71.49
74913;BME280;63878;55.624;37.304;2022-11-15T15:45:49;98825.19;;;-0.92;73.63
74913;BME280;63878;55.624;37.304;2022-11-15T15:55:49;98808.69;;;-0.54;72.60
74913;BME280;63878;55.624;37.304;2022-11-15T16:05:50;98793.34;;;-0.88;73.72
74913;BME280;63878;55.624;37.304;2022-11-15T16:15:52;98781.41;;;-0.89;73.43
74913;BME280;63878;55.624;37.304;2022-11-15T16:25:55;98777.19;;;-0.03;70.38
74913;BME280;63878;55.624;37.304;2022-11-15T16:35:56;98777.47;;;-0.42;71.84
74913;BME280;63878;55.624;37.304;2022-11-15T16:45:58;98776.50;;;-0.38;70.13
74913;BME280;63878;55.624;37.304;2022-11-15T16:56:01;98778.88;;;0.51;68.56
74913;BME280;63878;55.624;37.304;2022-11-15T17:06:01;98769.81;;;0.39;69.40
74913;BME280;63878;55.624;37.304;2022-11-15T17:16:07;98758.28;;;0.24;69.68
74913;BME280;63878;55.624;37.304;2022-11-15T17:26:13;98749.78;;;0.22;70.74
74913;BME280;63878;55.624;37.304;2022-11-15T17:36:15;98756.38;;;-0.23;71.66
74913;BME280;63878;55.624;37.304;2022-11-15T17:46:18;98747.03;;;-0.28;71.95
74913;BME280;63878;55.624;37.304;2022-11-15T17:56:22;98739.97;;;-0.21;72.33
74913;BME280;63878;55.624;37.304;2022-11-15T18:06:23;98727.31;;;-0.27;73.38
74913;BME280;63878;55.624;37.304;2022-11-15T18:16:30;98722.88;;;-0.22;72.34
74913;BME280;63878;55.624;37.304;2022-11-15T18:26:31;98716.81;;;-0.19;71.93
74913;BME280;63878;55.624;37.304;2022-11-15T18:36:32;98710.31;;;-0.05;70.96
74913;BME280;63878;55.624;37.304;2022-11-15T18:46:34;98713.97;;;-0.12;71.79
74913;BME280;63878;55.624;37.304;2022-11-15T18:56:36;98707.16;;;-0.13;72.04
74913;BME280;63878;55.624;37.304;2022-11-15T19:06:39;98699.31;;;-0.10;71.94
74913;BME280;63878;55.624;37.304;2022-11-15T19:16:45;98684.66;;;-0.08;72.07
74913;BME280;63878;55.624;37.304;2022-11-15T19:26:46;98675.69;;;-0.49;72.83
74913;BME280;63878;55.624;37.304;2022-11-15T19:36:47;98680.63;;;-0.43;72.83
74913;BME280;63878;55.624;37.304;2022-11-15T19:46:48;98672.34;;;-0.24;72.29
74913;BME280;63878;55.624;37.304;2022-11-15T19:56:49;98651.63;;;-0.20;71.39
74913;BME280;63878;55.624;37.304;2022-11-15T20:06:50;98655.03;;;-0.46;72.38
74913;BME280;63878;55.624;37.304;2022-11-15T20:16:51;98669.22;;;-0.34;71.09
74913;BME280;63878;55.624;37.304;2022-11-15T20:26:52;98655.91;;;-0.20;70.72
74913;BME280;63878;55.624;37.304;2022-11-15T20:36:53;98650.25;;;-0.58;72.05
74913;BME280;63878;55.624;37.304;2022-11-15T20:46:54;98645.00;;;-0.53;71.31
74913;BME280;63878;55.624;37.304;2022-11-15T20:56:55;98644.31;;;-0.32;71.21
74913;BME280;63878;55.624;37.304;2022-11-15T21:06:56;98638.59;;;-0.42;70.51
74913;BME280;63878;55.624;37.304;2022-11-15T21:16:56;98637.88;;;-0.45;71.00
74913;BME280;63878;55.624;37.304;2022-11-15T21:26:57;98639.69;;;-0.49;70.66
74913;BME280;63878;55.624;37.304;2022-11-15T21:36:58;98638.53;;;-0.96;72.29
74913;BME280;63878;55.624;37.304;2022-11-15T21:46:59;98642.69;;;-0.63;70.87
74913;BME280;63878;55.624;37.304;2022-11-15T21:57:00;98634.47;;;-0.47;70.93
74913;BME280;63878;55.624;37.304;2022-11-15T22:07:00;98637.75;;;-0.42;71.33
74913;BME280;63878;55.624;37.304;2022-11-15T22:17:01;98636.84;;;-0.13;70.86
74913;BME280;63878;55.624;37.304;2022-11-15T22:27:02;98629.25;;;-0.44;71.69
74913;BME280;63878;55.624;37.304;2022-11-15T22:37:02;98626.16;;;-0.56;71.67
74913;BME280;63878;55.624;37.304;2022-11-15T22:47:03;98638.41;;;-0.36;70.61
74913;BME280;63878;55.624;37.304;2022-11-15T22:57:04;98624.00;;;-0.41;71.80
74913;BME280;63878;55.624;37.304;2022-11-15T23:07:04;98627.53;;;-0.44;71.58
74913;BME280;63878;55.624;37.304;2022-11-15T23:17:05;98611.47;;;-0.78;72.15
74913;BME280;63878;55.624;37.304;2022-11-15T23:27:06;98612.00;;;-0.69;71.60
74913;BME280;63878;55.624;37.304;2022-11-15T23:37:09;98620.81;;;-0.76;70.53
74913;BME280;63878;55.624;37.304;2022-11-15T23:47:10;98618.28;;;-1.05;71.75
74913;BME280;63878;55.624;37.304;2022-11-15T23:57:11;98613.31;;;-0.84;69.84
